Columbus Metropolitan Airport
KCSG : now visible

Airfield :











YOU CAN JOIN US ON...

 
LOGIN :

Register | Disclaimer

   EN    FR    IT 

 









Legend :    VFR   Marginal VFR   IFR   Intensive IFR   Very Intensive IFR
Visi :
Ceiling :
>= 8 km
>= 3000ft
5 to 8 km
1000 to 3000 ft
1500m to 5 km
500 to 1000 ft
800 to 1500m
200 to 500 ft
< 800m
< 200 ft
Symbols :   Thunderstorms  Fog  Heavy snow  Heavy precipitations  Wind > 20 kt







- Airport Elevation : 397 ft
- IATA code : CSG


KCSG - Columbus Metropolitan

CURRENT METAR :
  • 201551Z 10011G17KT 060V140 10SM CLR 27/09 A3027 RMK AO2 SLP246 T02670089

EXPIRED METARs :
  • 201451Z 10011KT 10SM CLR 24/09 A3028 RMK AO2 SLP248 T02440094 51009
  • 201351Z 11009KT 10SM CLR 22/11 A3027 RMK AO2 SLP247 T02170111

TAF KCSG
Valid from the 20 at 16:00 until the 21 at 12:00 UTC


201530Z 2016/2112 09009KT P6SM SCT250
FM210000 08004KT P6SM FEW120 SCT250
No reported NOTAMs for that airfield.



MET'MAP, your aeronautical weather chart ! - Copyright ORBIFLY December 2007 - Disclaimer

ORBIFLY MET'MAP TEAM :

Programming & Development : Alexandra Zaïnal
Concept & Development : Baudouin d'Aumeries
Co-Development & Prog : Marc-Olivier Méhu
Technical & hardware support : Manuel Goepfert

Contact : metmap@orbifly.com




SOURCES & CREDITS :

   NOAA       Earth
Advisory